Shogun — WDC4322 — position and weather

sailwx.info

Track history (hours):
 
Tides and Currents Weather Stations Pressure Air Temp Water Temp Dewpoint Dewpoint Depression Visibility Wind Speed Wind Dir Waves Ship Positions

Shogun

Owner: Shogun, San Diego, CA. More information available from US FCC via Universal Licensing System and Coast Guard Vessel Documentation Center.

Last reported at 2017-Oct-15 13:46 UTC. Time now 2017-Nov-17 20:56 UTC.
Position N 29°60' W 117°43'.
Warning: this ship's position is 33 days out of date.

Type: Ship. MMSI: 368453000.

Date/timePositionNaut miles runAvg speedWind from/ knotsBaromVisibWave heightAir tempDewpointWater temp
2017-Oct-15 13:46N 29°60' W 117°43'3 9.8
2017-Oct-15 13:26N 30°03' W 117°41'29 9.9
2017-Oct-15 10:31N 30°29' W 117°28'210.2
2017-Oct-15 10:22N 30°31' W 117°27'1110.4
2017-Oct-15 09:20N 30°40' W 117°22'510.5
2017-Oct-15 08:50N 30°45' W 117°20'310.4
2017-Oct-15 08:30N 30°48' W 117°18'1810.4
2017-Oct-15 06:49N 31°04' W 117°09'310.2
2017-Oct-15 06:29N 31°07' W 117°08'610.0
2017-Oct-15 05:55N 31°12' W 117°05'8 9.9
2017-Oct-15 05:08N 31°19' W 117°01'110.0
2017-Oct-15 05:00N 31°21' W 117°01'79 7.4
2017-Oct-14 18:17N 32°39' W 117°13'3 9.6
2017-Oct-14 17:59N 32°42' W 117°14'0 0.2
2017-Oct-14 17:30N 32°42' W 117°14'0 0.0
2017-Oct-14 17:00N 32°42' W 117°14'1 1.3
2017-Oct-14 16:30N 32°42' W 117°14'1 2.6
2017-Oct-14 16:00N 32°43' W 117°14'0 0.1
2017-Oct-14 15:30N 32°43' W 117°14'0 0.1
2017-Oct-14 15:00N 32°43' W 117°14'0 0.4
2017-Oct-14 14:30N 32°43' W 117°14'0 0.0
2017-Oct-14 14:00N 32°43' W 117°14'0 0.4
2017-Oct-14 13:29N 32°43' W 117°14'0 0.0
2017-Oct-14 13:00N 32°43' W 117°14'0 0.0
2017-Oct-14 12:30N 32°43' W 117°14'0 0.0
2017-Oct-14 11:59N 32°43' W 117°14'0 0.0
2017-Oct-14 11:30N 32°43' W 117°14'0 0.0
2017-Oct-14 11:00N 32°43' W 117°14'0 0.0
2017-Oct-14 10:30N 32°43' W 117°14'0 0.0
2017-Oct-14 10:00N 32°43' W 117°14'0 0.0
2017-Oct-14 09:29N 32°43' W 117°14'0 0.0
2017-Oct-14 08:57N 32°43' W 117°14'0 0.0
2017-Oct-14 08:30N 32°43' W 117°14'0 0.0
2017-Oct-14 07:59N 32°43' W 117°14'0 0.0
2017-Oct-14 07:27N 32°43' W 117°14'0 0.1
2017-Oct-14 07:00N 32°43' W 117°14'0 0.0
2017-Oct-14 06:22N 32°43' W 117°14'0 0.0
2017-Oct-14 05:59N 32°43' W 117°14'0 0.0
2017-Oct-14 05:27N 32°43' W 117°14'0 0.0
2017-Oct-14 05:01N 32°43' W 117°14'0 0.0
2017-Oct-14 04:31N 32°43' W 117°14'0 0.0
2017-Oct-14 04:01N 32°43' W 117°14'0 0.0
2017-Oct-14 03:31N 32°43' W 117°14'0 0.0
2017-Oct-14 03:00N 32°43' W 117°14'0 0.0
2017-Oct-14 02:30N 32°43' W 117°14'0 0.0
2017-Oct-14 02:01N 32°43' W 117°14'0 0.0
2017-Oct-14 01:30N 32°43' W 117°14'0 0.0
2017-Oct-14 01:00N 32°43' W 117°14'0 0.0
2017-Oct-14 00:30N 32°43' W 117°14'0 0.0
2017-Oct-14 00:00N 32°43' W 117°14'0 0.0
2017-Oct-13 23:30N 32°43' W 117°14'0 0.0
2017-Oct-13 22:59N 32°43' W 117°14'2 3.5
2017-Oct-13 22:30N 32°42' W 117°14'3 6.5
2017-Oct-13 22:00N 32°39' W 117°13'3 6.2
2017-Oct-13 21:30N 32°36' W 117°13'  
Track history (hours):
 
Tides and Currents Weather Stations Pressure Air Temp Water Temp Dewpoint Dewpoint Depression Visibility Wind Speed Wind Dir Waves Ship Positions

Shogun

Owner: Shogun, San Diego, CA. More information available from US FCC via Universal Licensing System and Coast Guard Vessel Documentation Center.

Last reported at 2017-Oct-15 13:46 UTC. Time now 2017-Nov-17 20:56 UTC.
Position N 29°60' W 117°43'.
Warning: this ship's position is 33 days out of date.

Type: Ship. MMSI: 368453000.

Date/timePositionNaut miles runAvg speedWind from/ knotsBaromVisibWave heightAir tempDewpointWater temp
2017-Oct-15 13:46N 29°60' W 117°43'3 9.8
2017-Oct-15 13:26N 30°03' W 117°41'29 9.9
2017-Oct-15 10:31N 30°29' W 117°28'210.2
2017-Oct-15 10:22N 30°31' W 117°27'1110.4
2017-Oct-15 09:20N 30°40' W 117°22'510.5
2017-Oct-15 08:50N 30°45' W 117°20'310.4
2017-Oct-15 08:30N 30°48' W 117°18'1810.4
2017-Oct-15 06:49N 31°04' W 117°09'310.2
2017-Oct-15 06:29N 31°07' W 117°08'610.0
2017-Oct-15 05:55N 31°12' W 117°05'8 9.9
2017-Oct-15 05:08N 31°19' W 117°01'110.0
2017-Oct-15 05:00N 31°21' W 117°01'79 7.4
2017-Oct-14 18:17N 32°39' W 117°13'3 9.6
2017-Oct-14 17:59N 32°42' W 117°14'0 0.2
2017-Oct-14 17:30N 32°42' W 117°14'0 0.0
2017-Oct-14 17:00N 32°42' W 117°14'1 1.3
2017-Oct-14 16:30N 32°42' W 117°14'1 2.6
2017-Oct-14 16:00N 32°43' W 117°14'0 0.1
2017-Oct-14 15:30N 32°43' W 117°14'0 0.1
2017-Oct-14 15:00N 32°43' W 117°14'0 0.4
2017-Oct-14 14:30N 32°43' W 117°14'0 0.0
2017-Oct-14 14:00N 32°43' W 117°14'0 0.4
2017-Oct-14 13:29N 32°43' W 117°14'0 0.0
2017-Oct-14 13:00N 32°43' W 117°14'0 0.0
2017-Oct-14 12:30N 32°43' W 117°14'0 0.0
2017-Oct-14 11:59N 32°43' W 117°14'0 0.0
2017-Oct-14 11:30N 32°43' W 117°14'0 0.0
2017-Oct-14 11:00N 32°43' W 117°14'0 0.0
2017-Oct-14 10:30N 32°43' W 117°14'0 0.0
2017-Oct-14 10:00N 32°43' W 117°14'0 0.0
2017-Oct-14 09:29N 32°43' W 117°14'0 0.0
2017-Oct-14 08:57N 32°43' W 117°14'0 0.0
2017-Oct-14 08:30N 32°43' W 117°14'0 0.0
2017-Oct-14 07:59N 32°43' W 117°14'0 0.0
2017-Oct-14 07:27N 32°43' W 117°14'0 0.1
2017-Oct-14 07:00N 32°43' W 117°14'0 0.0
2017-Oct-14 06:22N 32°43' W 117°14'0 0.0
2017-Oct-14 05:59N 32°43' W 117°14'0 0.0
2017-Oct-14 05:27N 32°43' W 117°14'0 0.0
2017-Oct-14 05:01N 32°43' W 117°14'0 0.0
2017-Oct-14 04:31N 32°43' W 117°14'0 0.0
2017-Oct-14 04:01N 32°43' W 117°14'0 0.0
2017-Oct-14 03:31N 32°43' W 117°14'0 0.0
2017-Oct-14 03:00N 32°43' W 117°14'0 0.0
2017-Oct-14 02:30N 32°43' W 117°14'0 0.0
2017-Oct-14 02:01N 32°43' W 117°14'0 0.0
2017-Oct-14 01:30N 32°43' W 117°14'0 0.0
2017-Oct-14 01:00N 32°43' W 117°14'0 0.0
2017-Oct-14 00:30N 32°43' W 117°14'0 0.0
2017-Oct-14 00:00N 32°43' W 117°14'0 0.0
2017-Oct-13 23:30N 32°43' W 117°14'0 0.0
2017-Oct-13 22:59N 32°43' W 117°14'2 3.5
2017-Oct-13 22:30N 32°42' W 117°14'3 6.5
2017-Oct-13 22:00N 32°39' W 117°13'3 6.2
2017-Oct-13 21:30N 32°36' W 117°13'  

Dump ship's entire track history